sensor_id;sensor_type;location;lat;lon;timestamp;P1;durP1;ratioP1;P2;durP2;ratioP2
51479;SDS011;37556;44.570;18.612;2022-12-24T00:01:28;37.13;;;19.30;;
51479;SDS011;37556;44.570;18.612;2022-12-24T00:03:54;36.08;;;18.48;;
51479;SDS011;37556;44.570;18.612;2022-12-24T00:06:21;33.90;;;24.40;;
51479;SDS011;37556;44.570;18.612;2022-12-24T00:08:47;39.10;;;23.30;;
51479;SDS011;37556;44.570;18.612;2022-12-24T00:11:15;46.33;;;22.52;;
51479;SDS011;37556;44.570;18.612;2022-12-24T00:13:41;33.08;;;22.17;;
51479;SDS011;37556;44.570;18.612;2022-12-24T00:16:07;48.10;;;23.83;;
51479;SDS011;37556;44.570;18.612;2022-12-24T00:18:34;34.00;;;22.08;;
51479;SDS011;37556;44.570;18.612;2022-12-24T00:21:00;33.80;;;17.35;;
51479;SDS011;37556;44.570;18.612;2022-12-24T00:23:28;32.33;;;19.27;;
51479;SDS011;37556;44.570;18.612;2022-12-24T00:25:54;14.50;;;12.63;;
51479;SDS011;37556;44.570;18.612;2022-12-24T00:30:46;29.23;;;14.98;;
51479;SDS011;37556;44.570;18.612;2022-12-24T00:33:12;31.48;;;16.08;;
51479;SDS011;37556;44.570;18.612;2022-12-24T00:35:39;51.47;;;18.42;;
51479;SDS011;37556;44.570;18.612;2022-12-24T00:38:05;24.17;;;17.88;;
51479;SDS011;37556;44.570;18.612;2022-12-24T00:40:32;30.13;;;17.23;;
51479;SDS011;37556;44.570;18.612;2022-12-24T00:42:58;25.23;;;15.43;;
51479;SDS011;37556;44.570;18.612;2022-12-24T00:45:24;24.92;;;16.80;;
51479;SDS011;37556;44.570;18.612;2022-12-24T00:47:52;33.30;;;18.85;;
51479;SDS011;37556;44.570;18.612;2022-12-24T00:50:18;47.22;;;17.38;;
51479;SDS011;37556;44.570;18.612;2022-12-24T00:52:44;34.03;;;20.15;;
51479;SDS011;37556;44.570;18.612;2022-12-24T00:55:10;24.73;;;17.83;;
51479;SDS011;37556;44.570;18.612;2022-12-24T00:57:36;31.98;;;19.65;;
51479;SDS011;37556;44.570;18.612;2022-12-24T01:00:03;33.28;;;18.85;;
51479;SDS011;37556;44.570;18.612;2022-12-24T01:02:29;39.70;;;21.23;;
51479;SDS011;37556;44.570;18.612;2022-12-24T01:04:56;44.25;;;25.88;;
51479;SDS011;37556;44.570;18.612;2022-12-24T01:07:34;34.55;;;19.63;;
51479;SDS011;37556;44.570;18.612;2022-12-24T01:12:26;35.38;;;20.30;;
51479;SDS011;37556;44.570;18.612;2022-12-24T01:17:18;27.10;;;20.33;;
51479;SDS011;37556;44.570;18.612;2022-12-24T01:19:44;36.17;;;18.77;;
51479;SDS011;37556;44.570;18.612;2022-12-24T01:22:11;27.80;;;20.60;;
51479;SDS011;37556;44.570;18.612;2022-12-24T01:24:38;30.67;;;20.15;;
51479;SDS011;37556;44.570;18.612;2022-12-24T01:27:05;41.97;;;24.27;;
51479;SDS011;37556;44.570;18.612;2022-12-24T01:29:31;28.73;;;17.33;;
51479;SDS011;37556;44.570;18.612;2022-12-24T01:31:57;20.60;;;13.77;;
51479;SDS011;37556;44.570;18.612;2022-12-24T01:34:23;25.52;;;14.40;;
51479;SDS011;37556;44.570;18.612;2022-12-24T01:36:49;33.30;;;21.60;;
51479;SDS011;37556;44.570;18.612;2022-12-24T01:39:15;28.45;;;20.48;;
51479;SDS011;37556;44.570;18.612;2022-12-24T01:41:42;30.15;;;18.63;;
51479;SDS011;37556;44.570;18.612;2022-12-24T01:44:28;35.08;;;18.00;;
51479;SDS011;37556;44.570;18.612;2022-12-24T01:47:10;33.83;;;21.77;;
51479;SDS011;37556;44.570;18.612;2022-12-24T01:49:38;22.23;;;14.95;;
51479;SDS011;37556;44.570;18.612;2022-12-24T01:52:07;26.13;;;19.13;;
51479;SDS011;37556;44.570;18.612;2022-12-24T01:54:38;14.15;;;12.48;;
51479;SDS011;37556;44.570;18.612;2022-12-24T01:57:07;17.33;;;11.68;;
51479;SDS011;37556;44.570;18.612;2022-12-24T01:59:35;49.13;;;14.25;;
51479;SDS011;37556;44.570;18.612;2022-12-24T02:02:01;29.83;;;15.05;;
51479;SDS011;37556;44.570;18.612;2022-12-24T02:06:54;30.75;;;16.35;;
51479;SDS011;37556;44.570;18.612;2022-12-24T02:09:20;18.80;;;13.80;;
51479;SDS011;37556;44.570;18.612;2022-12-24T02:11:46;12.65;;;10.93;;
51479;SDS011;37556;44.570;18.612;2022-12-24T02:14:13;11.32;;;10.23;;
51479;SDS011;37556;44.570;18.612;2022-12-24T02:29:54;12.85;;;8.48;;
51479;SDS011;37556;44.570;18.612;2022-12-24T02:35:11;33.85;;;15.52;;
51479;SDS011;37556;44.570;18.612;2022-12-24T02:37:39;19.23;;;14.52;;
51479;SDS011;37556;44.570;18.612;2022-12-24T02:42:38;17.40;;;12.25;;
51479;SDS011;37556;44.570;18.612;2022-12-24T02:45:22;17.33;;;12.15;;
51479;SDS011;37556;44.570;18.612;2022-12-24T02:47:50;20.25;;;11.65;;
51479;SDS011;37556;44.570;18.612;2022-12-24T02:50:17;15.70;;;10.05;;
51479;SDS011;37556;44.570;18.612;2022-12-24T02:52:44;20.38;;;11.75;;
51479;SDS011;37556;44.570;18.612;2022-12-24T02:55:18;24.08;;;14.55;;
51479;SDS011;37556;44.570;18.612;2022-12-24T03:00:18;30.02;;;12.55;;
51479;SDS011;37556;44.570;18.612;2022-12-24T03:08:30;21.35;;;13.20;;
51479;SDS011;37556;44.570;18.612;2022-12-24T03:12:58;33.95;;;12.07;;
51479;SDS011;37556;44.570;18.612;2022-12-24T03:15:25;12.55;;;10.00;;
51479;SDS011;37556;44.570;18.612;2022-12-24T03:17:52;17.63;;;15.68;;
51479;SDS011;37556;44.570;18.612;2022-12-24T03:20:21;15.32;;;10.13;;
51479;SDS011;37556;44.570;18.612;2022-12-24T03:22:49;24.63;;;9.35;;
51479;SDS011;37556;44.570;18.612;2022-12-24T03:27:42;23.52;;;12.88;;
51479;SDS011;37556;44.570;18.612;2022-12-24T03:30:12;34.70;;;10.60;;
51479;SDS011;37556;44.570;18.612;2022-12-24T03:32:38;9.15;;;7.38;;
51479;SDS011;37556;44.570;18.612;2022-12-24T03:35:05;33.03;;;10.73;;
51479;SDS011;37556;44.570;18.612;2022-12-24T03:37:32;23.48;;;11.40;;
51479;SDS011;37556;44.570;18.612;2022-12-24T03:39:58;12.10;;;8.85;;
51479;SDS011;37556;44.570;18.612;2022-12-24T03:42:24;13.57;;;9.48;;
51479;SDS011;37556;44.570;18.612;2022-12-24T03:44:50;26.60;;;10.23;;
51479;SDS011;37556;44.570;18.612;2022-12-24T03:47:16;13.45;;;8.35;;
51479;SDS011;37556;44.570;18.612;2022-12-24T03:49:42;21.30;;;11.93;;
51479;SDS011;37556;44.570;18.612;2022-12-24T03:52:08;13.60;;;10.40;;
51479;SDS011;37556;44.570;18.612;2022-12-24T03:54:35;13.85;;;11.27;;
51479;SDS011;37556;44.570;18.612;2022-12-24T03:57:01;9.70;;;7.43;;
51479;SDS011;37556;44.570;18.612;2022-12-24T03:59:27;8.75;;;7.57;;
51479;SDS011;37556;44.570;18.612;2022-12-24T04:01:53;15.85;;;8.27;;
51479;SDS011;37556;44.570;18.612;2022-12-24T04:04:19;14.40;;;10.13;;
51479;SDS011;37556;44.570;18.612;2022-12-24T04:06:45;20.65;;;10.95;;
51479;SDS011;37556;44.570;18.612;2022-12-24T04:09:11;14.43;;;9.07;;
51479;SDS011;37556;44.570;18.612;2022-12-24T04:11:37;17.65;;;12.00;;
51479;SDS011;37556;44.570;18.612;2022-12-24T04:14:03;22.13;;;11.27;;
51479;SDS011;37556;44.570;18.612;2022-12-24T04:16:29;31.45;;;9.15;;
51479;SDS011;37556;44.570;18.612;2022-12-24T04:18:56;21.83;;;11.98;;
51479;SDS011;37556;44.570;18.612;2022-12-24T04:21:22;11.70;;;9.52;;
51479;SDS011;37556;44.570;18.612;2022-12-24T04:23:48;17.45;;;12.13;;
51479;SDS011;37556;44.570;18.612;2022-12-24T04:26:14;19.40;;;10.52;;
51479;SDS011;37556;44.570;18.612;2022-12-24T04:28:41;17.52;;;8.95;;
51479;SDS011;37556;44.570;18.612;2022-12-24T04:31:08;17.88;;;11.88;;
51479;SDS011;37556;44.570;18.612;2022-12-24T04:33:35;9.25;;;7.55;;
51479;SDS011;37556;44.570;18.612;2022-12-24T04:36:02;17.45;;;9.40;;
51479;SDS011;37556;44.570;18.612;2022-12-24T04:38:28;19.75;;;9.27;;
51479;SDS011;37556;44.570;18.612;2022-12-24T04:41:01;23.77;;;15.02;;
51479;SDS011;37556;44.570;18.612;2022-12-24T04:43:28;13.55;;;7.95;;
51479;SDS011;37556;44.570;18.612;2022-12-24T04:48:20;24.52;;;10.45;;
51479;SDS011;37556;44.570;18.612;2022-12-24T04:50:47;12.05;;;8.70;;
51479;SDS011;37556;44.570;18.612;2022-12-24T04:55:45;14.52;;;10.05;;
51479;SDS011;37556;44.570;18.612;2022-12-24T04:58:12;8.48;;;4.75;;
51479;SDS011;37556;44.570;18.612;2022-12-24T05:03:04;8.27;;;7.30;;
51479;SDS011;37556;44.570;18.612;2022-12-24T05:05:30;18.85;;;11.00;;
51479;SDS011;37556;44.570;18.612;2022-12-24T05:07:56;12.57;;;10.45;;
51479;SDS011;37556;44.570;18.612;2022-12-24T05:10:22;10.45;;;8.75;;
51479;SDS011;37556;44.570;18.612;2022-12-24T05:12:48;6.88;;;5.85;;
51479;SDS011;37556;44.570;18.612;2022-12-24T05:15:14;21.98;;;10.38;;
51479;SDS011;37556;44.570;18.612;2022-12-24T05:17:40;18.75;;;12.02;;
51479;SDS011;37556;44.570;18.612;2022-12-24T05:20:06;17.52;;;9.73;;
51479;SDS011;37556;44.570;18.612;2022-12-24T05:25:17;12.63;;;9.60;;
51479;SDS011;37556;44.570;18.612;2022-12-24T05:28:02;8.30;;;7.30;;
51479;SDS011;37556;44.570;18.612;2022-12-24T05:30:28;16.85;;;9.48;;
51479;SDS011;37556;44.570;18.612;2022-12-24T05:32:54;16.75;;;7.47;;
51479;SDS011;37556;44.570;18.612;2022-12-24T05:35:20;17.05;;;8.25;;
51479;SDS011;37556;44.570;18.612;2022-12-24T05:37:47;21.23;;;10.30;;
51479;SDS011;37556;44.570;18.612;2022-12-24T05:40:13;14.30;;;8.75;;
51479;SDS011;37556;44.570;18.612;2022-12-24T05:42:39;21.00;;;10.10;;
51479;SDS011;37556;44.570;18.612;2022-12-24T05:45:05;9.38;;;6.05;;
51479;SDS011;37556;44.570;18.612;2022-12-24T05:47:32;4.68;;;4.35;;
51479;SDS011;37556;44.570;18.612;2022-12-24T05:49:58;11.13;;;8.05;;
51479;SDS011;37556;44.570;18.612;2022-12-24T05:52:24;6.47;;;5.72;;
51479;SDS011;37556;44.570;18.612;2022-12-24T05:54:50;10.27;;;6.75;;
51479;SDS011;37556;44.570;18.612;2022-12-24T05:57:16;14.45;;;11.38;;
51479;SDS011;37556;44.570;18.612;2022-12-24T05:59:42;6.82;;;5.18;;
51479;SDS011;37556;44.570;18.612;2022-12-24T06:02:08;8.55;;;7.53;;
51479;SDS011;37556;44.570;18.612;2022-12-24T06:04:34;15.43;;;7.15;;
51479;SDS011;37556;44.570;18.612;2022-12-24T06:07:00;23.42;;;14.13;;
51479;SDS011;37556;44.570;18.612;2022-12-24T06:09:27;17.80;;;8.30;;
51479;SDS011;37556;44.570;18.612;2022-12-24T06:11:53;13.25;;;9.90;;
51479;SDS011;37556;44.570;18.612;2022-12-24T06:14:19;29.95;;;16.45;;
51479;SDS011;37556;44.570;18.612;2022-12-24T06:16:45;11.57;;;9.00;;
51479;SDS011;37556;44.570;18.612;2022-12-24T06:19:11;17.90;;;12.82;;
51479;SDS011;37556;44.570;18.612;2022-12-24T06:21:37;21.80;;;10.45;;
51479;SDS011;37556;44.570;18.612;2022-12-24T06:24:03;18.50;;;13.07;;
51479;SDS011;37556;44.570;18.612;2022-12-24T06:28:56;16.92;;;9.57;;
51479;SDS011;37556;44.570;18.612;2022-12-24T06:31:22;19.27;;;9.95;;
51479;SDS011;37556;44.570;18.612;2022-12-24T06:36:15;31.40;;;17.23;;
51479;SDS011;37556;44.570;18.612;2022-12-24T06:38:42;25.55;;;12.18;;
51479;SDS011;37556;44.570;18.612;2022-12-24T06:41:08;26.10;;;15.50;;
51479;SDS011;37556;44.570;18.612;2022-12-24T06:43:34;25.20;;;16.10;;
51479;SDS011;37556;44.570;18.612;2022-12-24T06:46:01;23.42;;;14.60;;
51479;SDS011;37556;44.570;18.612;2022-12-24T06:50:53;19.92;;;13.85;;
51479;SDS011;37556;44.570;18.612;2022-12-24T06:53:19;22.02;;;12.15;;
51479;SDS011;37556;44.570;18.612;2022-12-24T06:55:47;23.20;;;11.15;;
51479;SDS011;37556;44.570;18.612;2022-12-24T07:00:39;15.82;;;10.00;;
51479;SDS011;37556;44.570;18.612;2022-12-24T07:03:05;15.93;;;12.70;;
51479;SDS011;37556;44.570;18.612;2022-12-24T07:05:31;20.63;;;11.30;;
51479;SDS011;37556;44.570;18.612;2022-12-24T07:07:57;17.77;;;11.43;;
51479;SDS011;37556;44.570;18.612;2022-12-24T07:10:23;13.05;;;9.75;;
51479;SDS011;37556;44.570;18.612;2022-12-24T07:12:49;17.85;;;10.38;;
51479;SDS011;37556;44.570;18.612;2022-12-24T07:15:16;15.20;;;8.75;;
51479;SDS011;37556;44.570;18.612;2022-12-24T07:17:45;24.27;;;10.25;;
51479;SDS011;37556;44.570;18.612;2022-12-24T07:20:13;10.73;;;7.50;;
51479;SDS011;37556;44.570;18.612;2022-12-24T07:22:39;17.17;;;11.10;;
51479;SDS011;37556;44.570;18.612;2022-12-24T07:25:05;9.95;;;9.00;;
51479;SDS011;37556;44.570;18.612;2022-12-24T07:29:57;13.75;;;8.60;;
51479;SDS011;37556;44.570;18.612;2022-12-24T07:32:24;24.55;;;10.70;;
51479;SDS011;37556;44.570;18.612;2022-12-24T07:34:50;17.65;;;8.60;;
51479;SDS011;37556;44.570;18.612;2022-12-24T07:37:16;10.70;;;9.65;;
51479;SDS011;37556;44.570;18.612;2022-12-24T07:39:42;21.63;;;8.73;;
51479;SDS011;37556;44.570;18.612;2022-12-24T07:42:08;25.63;;;11.55;;
51479;SDS011;37556;44.570;18.612;2022-12-24T07:44:34;20.38;;;9.90;;
51479;SDS011;37556;44.570;18.612;2022-12-24T07:49:26;18.67;;;8.75;;
51479;SDS011;37556;44.570;18.612;2022-12-24T07:51:54;11.48;;;9.95;;
51479;SDS011;37556;44.570;18.612;2022-12-24T07:54:20;20.63;;;11.55;;
51479;SDS011;37556;44.570;18.612;2022-12-24T07:56:46;22.50;;;14.93;;
51479;SDS011;37556;44.570;18.612;2022-12-24T07:59:12;18.88;;;13.73;;
51479;SDS011;37556;44.570;18.612;2022-12-24T08:01:39;30.20;;;17.55;;
51479;SDS011;37556;44.570;18.612;2022-12-24T08:04:05;17.63;;;14.15;;
51479;SDS011;37556;44.570;18.612;2022-12-24T08:06:31;14.95;;;13.35;;
51479;SDS011;37556;44.570;18.612;2022-12-24T08:08:58;18.70;;;13.90;;
51479;SDS011;37556;44.570;18.612;2022-12-24T08:11:24;26.10;;;13.15;;
51479;SDS011;37556;44.570;18.612;2022-12-24T08:13:50;24.90;;;15.23;;
51479;SDS011;37556;44.570;18.612;2022-12-24T08:16:16;29.65;;;17.00;;
51479;SDS011;37556;44.570;18.612;2022-12-24T08:18:42;37.10;;;21.63;;
51479;SDS011;37556;44.570;18.612;2022-12-24T08:23:35;40.50;;;20.90;;
51479;SDS011;37556;44.570;18.612;2022-12-24T08:26:01;28.38;;;14.82;;
51479;SDS011;37556;44.570;18.612;2022-12-24T08:28:27;29.55;;;16.02;;
51479;SDS011;37556;44.570;18.612;2022-12-24T08:30:54;19.92;;;10.57;;
51479;SDS011;37556;44.570;18.612;2022-12-24T08:33:20;18.35;;;10.55;;
51479;SDS011;37556;44.570;18.612;2022-12-24T08:35:50;15.93;;;14.05;;
51479;SDS011;37556;44.570;18.612;2022-12-24T08:38:17;12.38;;;10.82;;
51479;SDS011;37556;44.570;18.612;2022-12-24T08:40:43;18.77;;;12.77;;
51479;SDS011;37556;44.570;18.612;2022-12-24T08:43:13;14.93;;;13.20;;
51479;SDS011;37556;44.570;18.612;2022-12-24T08:45:45;18.52;;;11.00;;
51479;SDS011;37556;44.570;18.612;2022-12-24T08:48:13;20.75;;;11.40;;
51479;SDS011;37556;44.570;18.612;2022-12-24T08:50:39;14.25;;;11.55;;
51479;SDS011;37556;44.570;18.612;2022-12-24T08:53:06;21.83;;;14.63;;
51479;SDS011;37556;44.570;18.612;2022-12-24T08:55:32;22.20;;;12.55;;
51479;SDS011;37556;44.570;18.612;2022-12-24T08:57:59;18.13;;;11.95;;
51479;SDS011;37556;44.570;18.612;2022-12-24T09:02:51;17.15;;;12.00;;
51479;SDS011;37556;44.570;18.612;2022-12-24T09:05:38;22.20;;;14.15;;
51479;SDS011;37556;44.570;18.612;2022-12-24T09:08:04;30.13;;;15.32;;
51479;SDS011;37556;44.570;18.612;2022-12-24T09:12:57;36.40;;;22.15;;
51479;SDS011;37556;44.570;18.612;2022-12-24T09:15:23;20.00;;;14.38;;
51479;SDS011;37556;44.570;18.612;2022-12-24T09:17:49;22.65;;;13.48;;
51479;SDS011;37556;44.570;18.612;2022-12-24T09:20:15;32.60;;;17.35;;
51479;SDS011;37556;44.570;18.612;2022-12-24T09:22:41;18.08;;;13.38;;
51479;SDS011;37556;44.570;18.612;2022-12-24T09:25:07;16.08;;;10.75;;
51479;SDS011;37556;44.570;18.612;2022-12-24T09:27:34;32.22;;;18.25;;
51479;SDS011;37556;44.570;18.612;2022-12-24T09:30:01;20.60;;;16.48;;
51479;SDS011;37556;44.570;18.612;2022-12-24T09:34:53;30.35;;;16.40;;
51479;SDS011;37556;44.570;18.612;2022-12-24T09:37:19;23.67;;;11.95;;
51479;SDS011;37556;44.570;18.612;2022-12-24T09:50:31;24.73;;;17.88;;
51479;SDS011;37556;44.570;18.612;2022-12-24T09:52:54;26.07;;;13.43;;
51479;SDS011;37556;44.570;18.612;2022-12-24T09:55:35;29.67;;;14.43;;
51479;SDS011;37556;44.570;18.612;2022-12-24T09:58:03;28.48;;;12.27;;
51479;SDS011;37556;44.570;18.612;2022-12-24T10:00:32;26.50;;;15.70;;
51479;SDS011;37556;44.570;18.612;2022-12-24T10:03:00;22.52;;;17.35;;
51479;SDS011;37556;44.570;18.612;2022-12-24T10:10:57;22.48;;;15.32;;
51479;SDS011;37556;44.570;18.612;2022-12-24T10:16:46;32.22;;;19.50;;
